createdAt,value
2019-01-05T00:01:00.186Z,34.80
2019-01-05T00:03:46.781Z,36.80
2019-01-05T00:06:33.627Z,36.87
2019-01-05T00:09:20.243Z,35.43
2019-01-05T00:12:06.834Z,31.80
2019-01-05T00:14:53.519Z,32.03
2019-01-05T00:17:40.126Z,31.23
2019-01-05T00:20:26.794Z,35.77
2019-01-05T00:23:13.410Z,31.97
2019-01-05T00:31:48.135Z,31.57
2019-01-05T00:46:10.303Z,32.20
2019-01-05T01:08:18.731Z,33.07
2019-01-05T01:13:39.822Z,33.03
2019-01-05T01:19:33.911Z,30.73
2019-01-05T01:25:28.026Z,31.90
2019-01-05T01:31:22.129Z,30.27
2019-01-05T01:34:08.793Z,32.13
2019-01-05T01:42:43.302Z,31.57
2019-01-05T01:54:24.595Z,28.93
2019-01-05T02:03:12.670Z,30.33
2019-01-05T02:20:46.283Z,31.80
2019-01-05T02:23:52.228Z,29.93
2019-01-05T02:26:58.195Z,30.60
2019-01-05T02:30:04.374Z,30.40
2019-01-05T02:35:46.510Z,28.73
2019-01-05T02:38:34.808Z,28.97
2019-01-05T02:41:41.007Z,27.53
2019-01-05T02:44:46.948Z,25.77
2019-01-05T02:56:34.439Z,23.73
2019-01-05T02:59:40.655Z,24.43
2019-01-05T03:02:46.594Z,24.43
2019-01-05T03:09:00.060Z,22.67
2019-01-05T03:12:06.030Z,21.27
2019-01-05T03:15:11.982Z,19.77
2019-01-05T03:21:11.654Z,17.90
2019-01-05T03:24:17.858Z,18.83
2019-01-05T03:30:32.729Z,18.47
2019-01-05T03:42:20.079Z,17.57
2019-01-05T03:45:26.025Z,16.30
2019-01-05T03:48:31.989Z,16.73
2019-01-05T03:51:37.971Z,16.23
2019-01-05T03:57:51.191Z,17.70
2019-01-05T04:00:57.358Z,16.97
2019-01-05T04:04:03.321Z,16.33
2019-01-05T04:16:04.146Z,15.57
2019-01-05T04:19:10.106Z,15.57
2019-01-05T04:22:16.063Z,14.70
2019-01-05T04:25:22.034Z,15.13
2019-01-05T04:28:28.227Z,14.57
2019-01-05T04:34:28.347Z,13.50
2019-01-05T04:37:34.307Z,13.37
2019-01-05T04:40:40.259Z,10.60
2019-01-05T04:43:46.218Z,12.53
2019-01-05T04:58:28.688Z,13.37
2019-01-05T05:04:28.358Z,12.67
2019-01-05T05:07:34.309Z,12.70
2019-01-05T05:10:40.263Z,12.70
2019-01-05T05:13:46.454Z,12.20
2019-01-05T05:16:52.411Z,12.63
2019-01-05T05:19:58.374Z,12.47
2019-01-05T05:23:04.314Z,13.20
2019-01-05T05:26:10.471Z,12.43
2019-01-05T05:35:18.041Z,12.03
2019-01-05T05:38:24.222Z,12.13
2019-01-05T05:41:30.413Z,12.33
2019-01-05T05:50:38.378Z,11.17
2019-01-05T05:53:44.580Z,11.87
2019-01-05T05:56:50.536Z,10.70
2019-01-05T05:59:56.479Z,11.67
2019-01-05T06:03:02.430Z,11.60
2019-01-05T06:09:15.634Z,11.40
2019-01-05T06:18:23.239Z,11.83
2019-01-05T06:21:29.182Z,11.37
2019-01-05T06:24:35.149Z,12.23
2019-01-05T06:27:23.297Z,12.07
2019-01-05T06:39:13.498Z,13.10
2019-01-05T06:42:19.452Z,14.93
2019-01-05T06:45:25.601Z,14.67
2019-01-05T06:48:31.546Z,15.70
2019-01-05T06:54:31.502Z,15.60
2019-01-05T06:57:37.689Z,16.20
2019-01-05T07:00:43.631Z,17.37
2019-01-05T07:03:49.590Z,16.83
2019-01-05T07:06:55.559Z,15.50
2019-01-05T07:10:01.706Z,16.27
2019-01-05T07:12:40.506Z,16.13
2019-01-05T07:15:46.467Z,16.57
2019-01-05T07:18:52.417Z,15.27
2019-01-05T07:21:58.355Z,15.23
2019-01-05T07:25:04.542Z,13.20
2019-01-05T07:28:10.498Z,15.67
2019-01-05T07:31:16.437Z,15.33
2019-01-05T07:45:57.726Z,15.77
2019-01-05T07:49:03.943Z,12.93
2019-01-05T07:52:09.917Z,11.60
2019-01-05T08:04:11.378Z,8.33
2019-01-05T08:10:11.206Z,7.00
2019-01-05T08:13:17.149Z,7.23
2019-01-05T08:16:23.102Z,7.60
2019-01-05T08:22:36.298Z,5.40
2019-01-05T08:25:42.267Z,6.17
2019-01-05T08:31:42.020Z,7.43
2019-01-05T08:37:41.999Z,6.90
2019-01-05T08:40:47.944Z,7.63
2019-01-05T08:43:53.898Z,6.67
2019-01-05T08:46:59.839Z,6.00
2019-01-05T08:52:59.646Z,4.93
2019-01-05T08:56:05.601Z,6.27
2019-01-05T08:59:11.557Z,6.40
2019-01-05T09:02:17.812Z,7.33
2019-01-05T09:05:23.794Z,6.53
2019-01-05T09:08:29.979Z,7.20
2019-01-05T09:14:30.086Z,10.40
2019-01-05T09:17:36.022Z,10.20
2019-01-05T09:26:30.086Z,9.43
2019-01-05T09:29:36.038Z,8.40
2019-01-05T09:32:42.247Z,8.07
2019-01-05T09:35:48.181Z,6.07
2019-01-05T09:50:28.358Z,6.97
2019-01-05T09:53:34.294Z,8.77
2019-01-05T09:56:40.546Z,8.20
2019-01-05T09:59:46.722Z,8.80
2019-01-05T10:02:52.688Z,8.57
2019-01-05T10:08:37.390Z,7.40
2019-01-05T10:17:48.040Z,6.77
2019-01-05T10:20:53.983Z,6.20
2019-01-05T10:26:53.270Z,6.13
2019-01-05T10:33:06.674Z,5.57
2019-01-05T10:36:12.619Z,5.80
2019-01-05T10:39:18.570Z,6.33
2019-01-05T10:45:32.006Z,5.10
2019-01-05T10:48:37.978Z,4.47
2019-01-05T10:54:51.369Z,3.53
2019-01-05T11:12:38.746Z,3.40
2019-01-05T11:18:38.971Z,3.90
2019-01-05T11:21:44.902Z,4.53
2019-01-05T11:24:50.882Z,4.63
2019-01-05T11:31:04.245Z,5.10
2019-01-05T11:37:17.455Z,5.83
2019-01-05T11:40:23.436Z,5.80
2019-01-05T11:49:17.487Z,5.67
2019-01-05T11:52:23.486Z,5.10
2019-01-05T11:58:23.152Z,5.17
2019-01-05T12:01:29.107Z,4.67
2019-01-05T12:04:35.102Z,5.73
2019-01-05T12:07:41.309Z,4.40
2019-01-05T12:13:41.155Z,5.20
2019-01-05T12:19:54.366Z,4.57
2019-01-05T12:23:00.546Z,5.43
2019-01-05T12:26:06.533Z,6.10
2019-01-05T12:29:12.458Z,6.10
2019-01-05T12:32:18.426Z,6.30
2019-01-05T12:35:24.363Z,6.47
2019-01-05T12:41:24.207Z,5.37
2019-01-05T12:44:30.138Z,7.07
2019-01-05T12:50:29.817Z,6.50
2019-01-05T12:56:29.482Z,6.10
2019-01-05T12:59:35.430Z,5.43
2019-01-05T13:02:41.366Z,6.33
2019-01-05T13:05:47.348Z,6.63
2019-01-05T13:20:42.122Z,7.50
2019-01-05T13:23:48.067Z,7.43
2019-01-05T13:32:40.783Z,5.90
2019-01-05T13:35:46.746Z,7.50
2019-01-05T13:38:52.706Z,7.53
2019-01-05T13:41:58.666Z,7.03
2019-01-05T13:45:04.632Z,7.27
2019-01-05T13:48:10.830Z,7.87
2019-01-05T13:51:16.795Z,7.67
2019-01-05T13:54:04.914Z,7.80
2019-01-05T13:56:53.059Z,7.83
2019-01-05T14:05:05.238Z,8.47
2019-01-05T14:10:39.961Z,8.30
2019-01-05T14:13:26.590Z,8.03
2019-01-05T14:16:13.208Z,8.97
2019-01-05T14:19:00.050Z,8.57
2019-01-05T14:24:34.769Z,7.20
2019-01-05T14:27:21.378Z,7.10
2019-01-05T14:33:09.462Z,7.30
2019-01-05T14:35:56.049Z,7.03
2019-01-05T14:38:42.911Z,7.13
2019-01-05T14:41:29.522Z,6.53
2019-01-05T14:47:04.202Z,6.90
2019-01-05T14:52:25.131Z,6.73
2019-01-05T14:55:11.750Z,7.00
2019-01-05T14:57:58.338Z,8.47
2019-01-05T15:00:44.962Z,6.87
2019-01-05T15:03:31.551Z,6.90
2019-01-05T15:06:18.149Z,7.60
2019-01-05T15:09:04.746Z,7.50
2019-01-05T15:11:51.366Z,7.03
2019-01-05T15:17:26.041Z,7.93
2019-01-05T15:23:00.835Z,8.10
2019-01-05T15:25:47.446Z,8.03
2019-01-05T15:28:34.068Z,7.37
2019-01-05T15:33:54.881Z,7.23
2019-01-05T15:36:41.462Z,7.47
2019-01-05T15:42:06.610Z,7.60
2019-01-05T15:44:53.206Z,6.50
2019-01-05T15:47:39.827Z,6.90
2019-01-05T15:50:26.496Z,7.53
2019-01-05T15:53:13.086Z,7.93
2019-01-05T15:55:59.949Z,8.53
2019-01-05T15:58:46.790Z,8.23
2019-01-05T16:01:33.650Z,10.57
2019-01-05T16:04:27.050Z,9.13
2019-01-05T16:07:08.846Z,11.17
2019-01-05T16:09:55.482Z,11.57
2019-01-05T16:12:42.099Z,11.70
2019-01-05T16:15:28.731Z,10.23
2019-01-05T16:18:15.318Z,9.63
2019-01-05T16:23:40.571Z,11.23
2019-01-05T16:26:27.182Z,11.43
2019-01-05T16:29:14.687Z,10.83
2019-01-05T16:32:01.381Z,10.93
2019-01-05T16:34:47.983Z,11.87
2019-01-05T16:37:34.598Z,10.60
2019-01-05T16:40:21.199Z,11.37
2019-01-05T16:45:42.406Z,11.83
2019-01-05T16:48:28.999Z,12.07
2019-01-05T16:51:15.621Z,10.90
2019-01-05T16:54:02.214Z,11.13
2019-01-05T16:56:49.066Z,9.90
2019-01-05T16:59:35.910Z,9.93
2019-01-05T17:02:22.509Z,10.73
2019-01-05T17:05:09.358Z,10.60
2019-01-05T17:07:56.214Z,9.40
2019-01-05T17:10:43.047Z,11.20
2019-01-05T17:13:29.643Z,12.00
2019-01-05T17:16:16.249Z,11.20
2019-01-05T17:19:02.871Z,11.73
2019-01-05T17:27:16.062Z,12.60
2019-01-05T17:30:02.670Z,11.10
2019-01-05T17:32:49.534Z,11.30
2019-01-05T17:35:36.145Z,12.47
2019-01-05T17:38:22.757Z,11.40
2019-01-05T17:41:09.368Z,11.20
2019-01-05T17:43:55.955Z,11.90
2019-01-05T17:46:42.561Z,10.63
2019-01-05T17:49:29.177Z,10.33
2019-01-05T17:52:15.801Z,10.47
2019-01-05T17:55:02.683Z,9.90
2019-01-05T17:57:49.315Z,11.70
2019-01-05T18:00:36.180Z,11.07
2019-01-05T18:06:10.855Z,10.90
2019-01-05T18:08:57.536Z,11.00
2019-01-05T18:14:32.228Z,9.97
2019-01-05T18:17:18.874Z,11.27
2019-01-05T18:28:10.919Z,11.20
2019-01-05T18:33:45.847Z,10.10
2019-01-05T18:36:32.466Z,9.50
2019-01-05T18:39:19.077Z,8.83
2019-01-05T18:52:45.004Z,10.37
2019-01-05T18:55:31.610Z,11.10
2019-01-05T18:58:18.219Z,11.20
2019-01-05T19:03:43.556Z,11.67
2019-01-05T19:09:08.719Z,11.20
2019-01-05T19:11:55.314Z,11.63
2019-01-05T19:14:41.897Z,10.77
2019-01-05T19:17:28.753Z,10.53
2019-01-05T19:20:15.349Z,12.40
2019-01-05T19:23:02.220Z,12.03
2019-01-05T19:28:37.440Z,12.93
2019-01-05T19:33:58.714Z,13.07
2019-01-05T19:36:45.553Z,11.80
2019-01-05T19:39:32.402Z,12.73
2019-01-05T19:42:18.995Z,13.77
2019-01-05T19:47:44.266Z,14.33
2019-01-05T19:50:30.863Z,14.57
2019-01-05T19:53:17.475Z,13.83
2019-01-05T20:01:26.470Z,14.40
2019-01-05T20:04:13.059Z,14.07
2019-01-05T20:06:59.674Z,13.10
2019-01-05T20:09:46.275Z,13.60
2019-01-05T20:12:32.902Z,13.63
2019-01-05T20:15:19.491Z,13.37
2019-01-05T20:18:06.350Z,11.70
2019-01-05T20:20:52.946Z,11.93
2019-01-05T20:23:39.566Z,11.73
2019-01-05T20:26:26.417Z,12.90
2019-01-05T20:29:13.022Z,13.23
2019-01-05T20:31:59.638Z,12.33
2019-01-05T20:34:46.465Z,14.43
2019-01-05T20:37:33.325Z,13.40
2019-01-05T20:40:19.936Z,13.83
2019-01-05T20:48:19.313Z,15.13
2019-01-05T20:51:05.952Z,13.93
2019-01-05T20:53:52.549Z,15.90
2019-01-05T20:56:39.179Z,14.67
2019-01-05T20:59:25.793Z,15.10
2019-01-05T21:02:12.390Z,15.87
2019-01-05T21:04:59.012Z,14.60
2019-01-05T21:13:18.117Z,15.43
2019-01-05T21:16:04.950Z,15.00
2019-01-05T21:18:51.588Z,15.77
2019-01-05T21:21:38.422Z,14.93
2019-01-05T21:24:25.046Z,15.60
2019-01-05T21:35:31.590Z,16.00
2019-01-05T21:38:18.187Z,16.67
2019-01-05T21:41:04.802Z,15.80
2019-01-05T21:46:29.911Z,15.33
2019-01-05T21:49:16.738Z,14.37
2019-01-05T21:52:03.362Z,16.03
2019-01-05T21:54:49.963Z,15.00
2019-01-05T21:57:36.579Z,15.30
2019-01-05T22:03:16.682Z,12.93
2019-01-05T22:08:41.734Z,15.27
2019-01-05T22:11:28.562Z,15.60
2019-01-05T22:14:15.419Z,13.93
2019-01-05T22:17:02.015Z,14.27
2019-01-05T22:19:48.862Z,13.97
2019-01-05T22:22:35.491Z,13.77
2019-01-05T22:25:22.105Z,12.80
2019-01-05T22:28:08.727Z,12.93
2019-01-05T22:33:33.893Z,11.87
2019-01-05T22:36:20.597Z,10.97
2019-01-05T22:39:07.235Z,11.07
2019-01-05T22:44:28.754Z,10.77
2019-01-05T22:50:03.502Z,10.27
2019-01-05T22:52:50.110Z,10.73
2019-01-05T22:55:36.982Z,10.17
2019-01-05T22:58:23.597Z,9.93
2019-01-05T23:03:44.674Z,10.23
2019-01-05T23:11:57.758Z,9.00
2019-01-05T23:14:44.374Z,8.60
2019-01-05T23:17:31.000Z,7.57
2019-01-05T23:20:17.842Z,6.33
2019-01-05T23:25:39.187Z,7.00
2019-01-05T23:28:25.923Z,6.93
2019-01-05T23:33:51.014Z,7.03
2019-01-05T23:39:16.390Z,6.20
2019-01-05T23:42:03.042Z,4.90
2019-01-05T23:44:49.886Z,5.57
2019-01-05T23:47:36.479Z,4.67
2019-01-05T23:50:24.638Z,6.03
2019-01-05T23:55:59.553Z,8.30
2019-01-05T23:58:46.407Z,9.07
